MNBL

Details ICAO MNBL (BEF)
Name BLUEFIELDS
Region Nicaragua
Timezone America/Managua (UTC-6.0)
Plans Departing 8
Arriving 18
Stats Elevation 41 ft / 12 m (AMSL)
Location 11.990961° -83.774086°
Runways 1
Magnetic Variation 2.387° W
Sunrise 2018-05-22 11:11:25 UTC / 2018-05-22 05:11:25 Local
Sunset 2018-05-22 23:55:00 UTC / 2018-05-22 17:55:00 Local
Advertisement - Login to hide

Runways

ID Width Length Bearing (true) Bearing (mag) Surface Threshold Offset Overrun Length
05 98 ft / 30 m 6,631 ft / 2,021 m 56.77° 59.16° Asphalt 0 ft / 0 m 0 ft / 0 m
23 98 ft / 30 m 6,631 ft / 2,021 m 236.78° 239.17° Asphalt 645 ft / 197 m 0 ft / 0 m

Map

Weather


0- 5 10 15 20 25 30 35+ Temperature / ° C

Clouds and Precipitation
Forecast for 2018-05-22 18:00 UTC. Updated 4 hours ago

Ground ~20,000 ft ~40,000 ft Winds

METAR

MNBL 222100Z 09004KT 8000 VCRA FEW018CB SCT020 29/26 Q1008 CBRA/ W/SW

TAF

Not found

Frequencies

Tower 118.50 MHz TWR
Warning: Do not use this data for real-world aviation or navigation. No guarantee of current accuracy is given.